createdAt,value
2023-01-22T00:01:24.984Z,85.07
2023-01-22T00:03:55.000Z,84.13
2023-01-22T00:06:23.877Z,85.17
2023-01-22T00:08:52.568Z,83.70
2023-01-22T00:11:21.124Z,84.65
2023-01-22T00:13:49.137Z,85.72
2023-01-22T00:16:18.391Z,83.02
2023-01-22T00:18:46.950Z,85.05
2023-01-22T00:21:15.028Z,87.77
2023-01-22T00:23:43.133Z,86.86
2023-01-22T00:26:15.690Z,87.13
2023-01-22T00:28:45.740Z,87.80
2023-01-22T00:31:16.544Z,87.38
2023-01-22T00:33:46.225Z,86.68
2023-01-22T00:36:17.652Z,84.28
2023-01-22T00:38:45.840Z,84.81
2023-01-22T00:41:15.351Z,84.51
2023-01-22T00:43:43.555Z,83.69
2023-01-22T00:46:16.234Z,85.83
2023-01-22T00:48:49.938Z,85.71
2023-01-22T00:51:18.196Z,84.59
2023-01-22T00:53:46.787Z,84.37
2023-01-22T00:56:15.333Z,84.82
2023-01-22T00:58:43.996Z,84.41
2023-01-22T01:01:14.464Z,84.55
2023-01-22T01:03:43.025Z,84.11
2023-01-22T01:06:17.248Z,84.75
2023-01-22T01:08:47.430Z,84.59
2023-01-22T01:11:25.461Z,84.51
2023-01-22T01:13:54.250Z,86.33
2023-01-22T01:16:30.349Z,86.85
2023-01-22T01:19:02.738Z,84.84
2023-01-22T01:21:30.726Z,85.64
2023-01-22T01:24:00.881Z,84.50
2023-01-22T01:26:29.387Z,83.60
2023-01-22T01:28:57.465Z,84.77
2023-01-22T01:31:28.769Z,85.05
2023-01-22T01:33:59.098Z,85.04
2023-01-22T01:36:47.175Z,83.93
2023-01-22T01:39:16.950Z,85.16
2023-01-22T01:41:45.383Z,83.04
2023-01-22T01:44:18.610Z,85.00
2023-01-22T01:46:48.547Z,83.43
2023-01-22T01:49:28.452Z,82.87
2023-01-22T01:52:00.519Z,84.85
2023-01-22T01:54:29.431Z,85.76
2023-01-22T01:57:04.750Z,82.96
2023-01-22T01:59:33.858Z,84.19
2023-01-22T02:02:03.427Z,83.51
2023-01-22T02:04:32.231Z,87.62
2023-01-22T02:07:00.300Z,86.31
2023-01-22T02:09:30.079Z,86.43
2023-01-22T02:11:58.704Z,83.86
2023-01-22T02:14:30.238Z,85.34
2023-01-22T02:17:21.504Z,86.63
2023-01-22T02:19:51.516Z,86.45
2023-01-22T02:22:22.594Z,85.58
2023-01-22T02:24:50.940Z,83.94
2023-01-22T02:27:19.821Z,86.48
2023-01-22T02:29:48.246Z,86.32
2023-01-22T02:32:17.106Z,86.79
2023-01-22T02:34:45.878Z,85.16
2023-01-22T02:37:14.081Z,86.67
2023-01-22T02:39:42.616Z,86.40
2023-01-22T02:42:11.427Z,89.34
2023-01-22T02:44:39.710Z,85.56
2023-01-22T02:47:07.928Z,85.73
2023-01-22T02:49:36.485Z,89.23
2023-01-22T02:52:04.754Z,87.54
2023-01-22T02:54:33.201Z,87.75
2023-01-22T02:57:01.706Z,85.95
2023-01-22T02:59:29.848Z,85.89
2023-01-22T03:01:58.073Z,87.10
2023-01-22T03:04:27.572Z,90.52
2023-01-22T03:06:55.682Z,90.78
2023-01-22T03:09:24.281Z,91.88
2023-01-22T03:11:53.189Z,89.42
2023-01-22T03:14:40.747Z,85.83
2023-01-22T03:17:28.158Z,86.18
2023-01-22T03:20:15.145Z,87.96
2023-01-22T03:22:43.623Z,84.96
2023-01-22T03:25:11.721Z,87.34
2023-01-22T03:27:59.889Z,85.50
2023-01-22T03:30:28.930Z,84.71
2023-01-22T03:32:57.111Z,86.73
2023-01-22T03:35:25.612Z,86.56
2023-01-22T03:37:55.769Z,86.32
2023-01-22T03:40:23.971Z,84.83
2023-01-22T03:42:53.882Z,86.87
2023-01-22T03:45:22.488Z,86.08
2023-01-22T03:47:54.938Z,85.91
2023-01-22T03:50:23.690Z,85.05
2023-01-22T03:52:53.001Z,84.68
2023-01-22T03:55:22.122Z,86.71
2023-01-22T03:57:50.600Z,86.68
2023-01-22T04:00:20.777Z,87.35
2023-01-22T04:02:52.880Z,89.58
2023-01-22T04:05:21.630Z,90.15
2023-01-22T04:07:50.889Z,89.46
2023-01-22T04:10:20.069Z,89.51
2023-01-22T04:12:49.210Z,90.09
2023-01-22T04:15:18.571Z,89.29
2023-01-22T04:17:47.434Z,87.16
2023-01-22T04:20:16.243Z,87.06
2023-01-22T04:22:44.680Z,87.09
2023-01-22T04:25:13.340Z,87.34
2023-01-22T04:27:41.414Z,85.55
2023-01-22T04:30:11.290Z,87.57
2023-01-22T04:32:39.721Z,86.19
2023-01-22T04:35:09.104Z,85.31
2023-01-22T04:37:37.651Z,86.40
2023-01-22T04:40:06.691Z,89.23
2023-01-22T04:42:35.330Z,87.00
2023-01-22T04:45:04.259Z,85.78
2023-01-22T04:47:32.948Z,85.17
2023-01-22T04:50:01.628Z,86.28
2023-01-22T04:52:29.730Z,88.46
2023-01-22T04:54:58.172Z,86.49
2023-01-22T04:57:26.995Z,85.65
2023-01-22T04:59:55.115Z,86.85
2023-01-22T05:02:23.578Z,86.06
2023-01-22T05:04:51.819Z,87.09
2023-01-22T05:07:19.981Z,88.93
2023-01-22T05:09:48.679Z,86.86
2023-01-22T05:12:16.804Z,86.83
2023-01-22T05:14:46.671Z,85.92
2023-01-22T05:17:15.251Z,86.22
2023-01-22T05:19:43.472Z,84.65
2023-01-22T05:22:12.636Z,87.32
2023-01-22T05:24:41.301Z,85.98
2023-01-22T05:27:09.372Z,87.74
2023-01-22T05:29:38.736Z,86.35
2023-01-22T05:32:07.359Z,85.88
2023-01-22T05:34:35.567Z,86.41
2023-01-22T05:37:04.441Z,85.76
2023-01-22T05:39:33.180Z,85.39
2023-01-22T05:42:01.484Z,85.80
2023-01-22T05:44:30.574Z,85.09
2023-01-22T05:47:00.643Z,84.17
2023-01-22T05:49:28.702Z,85.30
2023-01-22T05:51:56.942Z,85.00
2023-01-22T05:54:25.462Z,84.65
2023-01-22T05:56:53.755Z,85.07
2023-01-22T05:59:21.934Z,85.68
2023-01-22T06:01:51.665Z,84.63
2023-01-22T06:04:20.595Z,86.57
2023-01-22T06:06:49.501Z,84.11
2023-01-22T06:09:17.662Z,85.35
2023-01-22T06:11:46.220Z,84.64
2023-01-22T06:14:14.820Z,84.40
2023-01-22T06:16:43.172Z,83.49
2023-01-22T06:19:12.927Z,83.16
2023-01-22T06:21:41.432Z,83.86
2023-01-22T06:24:09.711Z,83.67
2023-01-22T06:26:38.265Z,82.85
2023-01-22T06:29:07.081Z,84.97
2023-01-22T06:31:35.353Z,85.49
2023-01-22T06:34:05.750Z,84.26
2023-01-22T06:36:33.891Z,85.64
2023-01-22T06:39:02.094Z,85.20
2023-01-22T06:41:31.021Z,85.10
2023-01-22T06:43:59.612Z,86.12
2023-01-22T06:46:27.938Z,85.68
2023-01-22T06:48:56.761Z,85.89
2023-01-22T06:51:25.877Z,88.04
2023-01-22T06:53:54.610Z,86.36
2023-01-22T06:56:23.147Z,85.38
2023-01-22T06:58:51.301Z,88.12
2023-01-22T07:01:19.462Z,88.26
2023-01-22T07:03:48.023Z,88.66
2023-01-22T07:06:18.954Z,86.65
2023-01-22T07:08:47.423Z,87.17
2023-01-22T07:11:16.411Z,87.52
2023-01-22T07:13:44.504Z,88.83
2023-01-22T07:16:13.625Z,90.40
2023-01-22T07:18:41.724Z,90.61
2023-01-22T07:21:11.350Z,92.42
2023-01-22T07:23:39.872Z,91.89
2023-01-22T07:26:08.153Z,90.78
2023-01-22T07:28:36.260Z,88.69
2023-01-22T07:31:05.512Z,87.93
2023-01-22T07:33:33.631Z,88.12
2023-01-22T07:36:01.793Z,87.35
2023-01-22T07:38:30.552Z,87.60
2023-01-22T07:41:04.336Z,91.37
2023-01-22T07:43:34.090Z,93.86
2023-01-22T07:46:06.892Z,92.76
2023-01-22T07:48:35.241Z,91.49
2023-01-22T07:51:06.035Z,92.28
2023-01-22T07:53:35.242Z,88.91
2023-01-22T07:56:03.752Z,88.36
2023-01-22T07:58:32.145Z,89.59
2023-01-22T08:01:00.401Z,90.16
2023-01-22T08:03:29.003Z,89.76
2023-01-22T08:05:57.571Z,90.22
2023-01-22T08:08:25.806Z,89.37
2023-01-22T08:10:58.881Z,88.37
2023-01-22T08:13:27.123Z,86.29
2023-01-22T08:15:55.540Z,87.19
2023-01-22T08:18:23.829Z,86.11
2023-01-22T08:20:51.941Z,88.49
2023-01-22T08:23:21.942Z,86.63
2023-01-22T08:25:50.179Z,85.62
2023-01-22T08:28:18.161Z,86.49
2023-01-22T08:30:47.104Z,87.71
2023-01-22T08:33:16.109Z,85.71
2023-01-22T08:35:45.412Z,85.55
2023-01-22T08:38:14.092Z,83.00
2023-01-22T08:40:42.130Z,82.70
2023-01-22T08:43:10.193Z,84.67
2023-01-22T08:45:38.698Z,82.90
2023-01-22T08:48:06.902Z,80.76
2023-01-22T08:50:34.894Z,79.75
2023-01-22T08:53:03.397Z,80.57
2023-01-22T08:55:31.622Z,78.86
2023-01-22T08:57:59.670Z,79.28
2023-01-22T09:00:28.209Z,81.41
2023-01-22T09:03:00.041Z,81.14
2023-01-22T09:05:28.932Z,82.22
2023-01-22T09:07:56.920Z,82.50
2023-01-22T09:10:25.294Z,82.41
2023-01-22T09:12:53.955Z,81.21
2023-01-22T09:15:21.959Z,80.01
2023-01-22T09:17:50.208Z,79.44
2023-01-22T09:20:18.956Z,80.04
2023-01-22T09:22:48.192Z,78.71
2023-01-22T09:25:16.527Z,79.11
2023-01-22T09:30:30.645Z,79.53
2023-01-22T09:32:59.365Z,79.28
2023-01-22T09:35:28.067Z,79.84
2023-01-22T09:37:56.112Z,81.03
2023-01-22T09:40:30.879Z,83.11
2023-01-22T09:43:23.718Z,84.14
2023-01-22T09:45:55.302Z,81.93
2023-01-22T09:48:24.949Z,85.36
2023-01-22T09:50:53.209Z,85.14
2023-01-22T09:53:21.717Z,83.20
2023-01-22T09:55:51.872Z,82.58
2023-01-22T09:58:22.388Z,81.79
2023-01-22T10:01:00.766Z,82.97
2023-01-22T10:03:35.250Z,82.91
2023-01-22T10:06:19.731Z,84.80
2023-01-22T10:09:08.245Z,82.59
2023-01-22T10:11:37.968Z,81.21
2023-01-22T10:14:16.116Z,81.01
2023-01-22T10:16:45.878Z,78.91
2023-01-22T10:19:23.298Z,80.57
2023-01-22T10:21:55.250Z,80.42
2023-01-22T10:24:23.588Z,81.38
2023-01-22T10:26:54.733Z,83.10
2023-01-22T10:29:26.051Z,82.18
2023-01-22T10:31:57.279Z,81.92
2023-01-22T10:34:31.137Z,78.55
2023-01-22T10:37:21.769Z,78.78
2023-01-22T10:39:50.926Z,80.17
2023-01-22T10:42:24.318Z,80.76
2023-01-22T10:45:16.107Z,79.33
2023-01-22T10:47:44.396Z,79.65
2023-01-22T10:50:16.741Z,82.26
2023-01-22T10:52:50.846Z,79.60
2023-01-22T10:55:28.102Z,81.11
2023-01-22T10:58:03.230Z,78.55
2023-01-22T11:00:50.504Z,80.87
2023-01-22T11:03:22.660Z,81.20
2023-01-22T11:05:54.826Z,80.92
2023-01-22T11:08:25.751Z,83.70
2023-01-22T11:10:57.219Z,83.67
2023-01-22T11:13:29.721Z,82.46
2023-01-22T11:16:03.613Z,81.53
2023-01-22T11:18:59.238Z,82.85
2023-01-22T11:21:36.355Z,85.12
2023-01-22T11:24:12.498Z,84.29
2023-01-22T11:27:11.568Z,85.24
2023-01-22T11:29:48.688Z,86.13
2023-01-22T11:32:16.610Z,82.82
2023-01-22T11:35:14.428Z,82.53
2023-01-22T11:37:49.388Z,82.96
2023-01-22T11:40:30.888Z,81.81
2023-01-22T11:43:09.939Z,82.87
2023-01-22T11:45:59.979Z,84.13
2023-01-22T11:48:33.950Z,85.03
2023-01-22T11:51:29.410Z,85.01
2023-01-22T11:54:00.544Z,84.26
2023-01-22T11:56:50.102Z,84.32
2023-01-22T11:59:28.230Z,84.82
2023-01-22T12:02:18.183Z,82.26
2023-01-22T12:05:04.088Z,84.90
2023-01-22T12:07:38.123Z,83.67
2023-01-22T12:10:12.709Z,84.51
2023-01-22T12:12:55.599Z,83.44
2023-01-22T12:15:51.780Z,83.87
2023-01-22T12:18:25.513Z,84.96
2023-01-22T12:21:10.211Z,84.91
2023-01-22T12:23:50.090Z,84.31
2023-01-22T12:26:24.180Z,84.54
2023-01-22T12:28:56.998Z,84.16
2023-01-22T12:31:54.730Z,85.15
2023-01-22T12:34:34.218Z,85.32
2023-01-22T12:37:03.589Z,85.13
2023-01-22T12:39:37.029Z,84.30
2023-01-22T12:42:20.399Z,85.32
2023-01-22T12:45:14.227Z,85.92
2023-01-22T12:47:52.349Z,86.24
2023-01-22T12:50:23.171Z,84.49
2023-01-22T12:53:01.183Z,83.64
2023-01-22T12:55:44.319Z,83.74
2023-01-22T12:58:27.008Z,83.22
2023-01-22T13:01:22.761Z,85.24
2023-01-22T13:04:03.038Z,85.28
2023-01-22T13:06:34.135Z,86.40
2023-01-22T13:09:04.262Z,88.43
2023-01-22T13:11:37.536Z,84.62
2023-01-22T13:14:15.081Z,83.58
2023-01-22T13:16:57.823Z,86.21
2023-01-22T13:19:30.519Z,85.01
2023-01-22T13:22:00.156Z,86.13
2023-01-22T13:24:28.847Z,83.84
2023-01-22T13:27:00.540Z,86.39
2023-01-22T13:29:37.736Z,87.46
2023-01-22T13:32:16.474Z,85.96
2023-01-22T13:34:44.907Z,84.06
2023-01-22T13:37:26.720Z,82.41
2023-01-22T13:39:55.105Z,83.96
2023-01-22T13:42:25.002Z,85.47
2023-01-22T13:44:53.326Z,86.58
2023-01-22T13:47:39.948Z,84.38
2023-01-22T13:50:22.157Z,84.25
2023-01-22T13:52:50.757Z,83.62
2023-01-22T13:55:21.312Z,84.67
2023-01-22T13:57:51.928Z,86.33
2023-01-22T14:00:34.593Z,84.86
2023-01-22T14:03:03.513Z,84.83
2023-01-22T14:05:35.805Z,84.98
2023-01-22T14:08:06.515Z,86.57
2023-01-22T14:10:34.817Z,85.89
2023-01-22T14:13:08.130Z,87.18
2023-01-22T14:15:39.549Z,87.10
2023-01-22T14:18:16.380Z,87.81
2023-01-22T14:20:46.498Z,86.34
2023-01-22T14:23:15.444Z,84.96
2023-01-22T14:25:48.385Z,83.72
2023-01-22T14:28:17.040Z,86.20
2023-01-22T14:30:45.675Z,87.17
2023-01-22T14:33:25.417Z,86.65
2023-01-22T14:35:54.300Z,85.09
2023-01-22T14:38:23.430Z,84.84
2023-01-22T14:40:52.183Z,84.09
2023-01-22T14:43:20.889Z,87.66
2023-01-22T14:45:49.182Z,87.60
2023-01-22T14:48:19.291Z,86.99
2023-01-22T14:50:48.458Z,85.88
2023-01-22T14:53:19.095Z,86.31
2023-01-22T14:55:47.516Z,88.10
2023-01-22T14:58:16.577Z,87.02
2023-01-22T15:00:44.823Z,87.77
2023-01-22T15:03:13.337Z,88.80
2023-01-22T15:05:41.380Z,90.20
2023-01-22T15:08:09.368Z,90.89
2023-01-22T15:10:47.656Z,88.95
2023-01-22T15:13:27.547Z,90.69
2023-01-22T15:16:09.585Z,90.54
2023-01-22T15:18:42.549Z,90.09
2023-01-22T15:21:10.955Z,92.52
2023-01-22T15:23:39.150Z,91.76
2023-01-22T15:26:09.568Z,90.29
2023-01-22T15:28:39.430Z,92.82
2023-01-22T15:31:10.398Z,91.96
2023-01-22T15:33:38.787Z,92.04
2023-01-22T15:36:07.379Z,91.48
2023-01-22T15:38:35.677Z,89.87
2023-01-22T15:41:07.490Z,90.75
2023-01-22T15:43:35.518Z,91.41
2023-01-22T15:46:04.039Z,89.73
2023-01-22T15:48:31.959Z,89.73
2023-01-22T15:51:08.285Z,91.14
2023-01-22T15:53:39.383Z,93.52
2023-01-22T15:56:09.330Z,91.71
2023-01-22T15:58:37.829Z,92.75
2023-01-22T16:01:07.508Z,91.67
2023-01-22T16:03:35.930Z,93.25
2023-01-22T16:06:13.339Z,91.18
2023-01-22T16:08:43.409Z,92.63
2023-01-22T16:11:12.000Z,90.91
2023-01-22T16:13:40.343Z,93.26
2023-01-22T16:16:16.126Z,95.73
2023-01-22T16:18:44.509Z,95.31
2023-01-22T16:21:13.207Z,94.54
2023-01-22T16:23:43.316Z,93.10
2023-01-22T16:26:18.212Z,96.60
2023-01-22T16:28:48.940Z,98.10
2023-01-22T16:31:23.504Z,97.25
2023-01-22T16:33:55.891Z,96.26
2023-01-22T16:36:26.511Z,93.67
2023-01-22T16:38:55.876Z,92.35
2023-01-22T16:41:28.097Z,93.79
2023-01-22T16:44:02.049Z,94.86
2023-01-22T16:46:32.125Z,95.61
2023-01-22T16:49:25.106Z,93.90
2023-01-22T16:52:16.730Z,93.84
2023-01-22T16:54:50.488Z,95.45
2023-01-22T16:57:22.217Z,95.93
2023-01-22T16:59:50.652Z,93.30
2023-01-22T17:02:19.479Z,91.41
2023-01-22T17:04:47.773Z,96.01
2023-01-22T17:07:32.267Z,98.00
2023-01-22T17:10:01.633Z,96.86
2023-01-22T17:12:30.162Z,94.71
2023-01-22T17:14:58.340Z,91.40
2023-01-22T17:17:26.576Z,92.84
2023-01-22T17:19:54.964Z,92.40
2023-01-22T17:22:24.342Z,95.51
2023-01-22T17:24:52.802Z,93.02
2023-01-22T17:27:21.747Z,94.72
2023-01-22T17:29:49.685Z,95.55
2023-01-22T17:32:17.817Z,93.40
2023-01-22T17:34:46.200Z,93.20
2023-01-22T17:37:14.237Z,92.43
2023-01-22T17:39:43.502Z,88.21
2023-01-22T17:42:11.958Z,86.89
2023-01-22T17:44:40.975Z,89.31
2023-01-22T17:47:10.600Z,92.29
2023-01-22T17:49:39.130Z,87.36
2023-01-22T17:52:09.274Z,89.73
2023-01-22T17:54:38.075Z,90.64
2023-01-22T17:57:06.569Z,90.91
2023-01-22T17:59:34.528Z,91.17
2023-01-22T18:02:02.575Z,95.37
2023-01-22T18:04:34.631Z,93.37
2023-01-22T18:07:03.832Z,95.37
2023-01-22T18:09:32.248Z,93.28
2023-01-22T18:12:00.749Z,92.62
2023-01-22T18:14:34.042Z,92.20
2023-01-22T18:17:02.567Z,91.02
2023-01-22T18:19:30.548Z,90.60
2023-01-22T18:21:58.526Z,89.13
2023-01-22T18:24:27.587Z,88.34
2023-01-22T18:26:58.133Z,92.37
2023-01-22T18:29:26.949Z,93.82
2023-01-22T18:31:54.858Z,91.22
2023-01-22T18:34:22.838Z,92.36
2023-01-22T18:36:51.226Z,91.24
2023-01-22T18:39:19.554Z,88.76
2023-01-22T18:41:47.748Z,86.92
2023-01-22T18:44:17.516Z,88.80
2023-01-22T18:46:48.351Z,90.78
2023-01-22T18:49:19.184Z,88.18
2023-01-22T18:51:47.400Z,89.57
2023-01-22T18:54:16.174Z,89.15
2023-01-22T18:56:44.701Z,89.21
2023-01-22T18:59:15.249Z,88.79
2023-01-22T19:01:50.225Z,86.85
2023-01-22T19:04:22.184Z,90.20
2023-01-22T19:06:52.699Z,89.99
2023-01-22T19:09:21.671Z,89.78
2023-01-22T19:11:52.380Z,94.18
2023-01-22T19:14:23.087Z,92.40
2023-01-22T19:16:53.524Z,91.18
2023-01-22T19:19:25.464Z,92.98
2023-01-22T19:21:55.834Z,89.60
2023-01-22T19:24:28.093Z,90.47
2023-01-22T19:26:57.179Z,91.68
2023-01-22T19:29:25.995Z,90.98
2023-01-22T19:31:55.955Z,92.61
2023-01-22T19:34:24.304Z,91.95
2023-01-22T19:36:55.181Z,90.43
2023-01-22T19:39:23.537Z,88.65
2023-01-22T19:41:51.757Z,86.46
2023-01-22T19:44:20.649Z,88.80
2023-01-22T19:46:48.789Z,87.04
2023-01-22T19:49:16.754Z,83.97
2023-01-22T19:51:45.034Z,81.61
2023-01-22T19:54:13.621Z,82.62
2023-01-22T19:56:45.512Z,86.36
2023-01-22T19:59:16.291Z,89.45
2023-01-22T20:01:48.790Z,88.08
2023-01-22T20:04:29.866Z,90.15
2023-01-22T20:07:00.877Z,82.96
2023-01-22T20:09:30.390Z,84.71
2023-01-22T20:11:59.216Z,88.68
2023-01-22T20:14:30.633Z,86.65
2023-01-22T20:17:00.368Z,84.05
2023-01-22T20:19:29.385Z,87.00
2023-01-22T20:21:57.770Z,82.35
2023-01-22T20:24:26.028Z,83.73
2023-01-22T20:26:55.648Z,85.79
2023-01-22T20:29:23.531Z,86.99
2023-01-22T20:31:52.934Z,83.64
2023-01-22T20:34:21.216Z,79.82
2023-01-22T20:36:49.202Z,83.40
2023-01-22T20:39:19.767Z,86.71
2023-01-22T20:41:47.895Z,89.01
2023-01-22T20:44:16.347Z,86.41
2023-01-22T20:46:44.896Z,84.93
2023-01-22T20:49:13.365Z,83.52
2023-01-22T20:51:42.493Z,83.36
2023-01-22T20:54:10.753Z,83.47
2023-01-22T20:56:38.868Z,85.03
2023-01-22T20:59:11.194Z,83.90
2023-01-22T21:01:39.865Z,83.45
2023-01-22T21:04:08.228Z,86.76
2023-01-22T21:06:37.578Z,85.97
2023-01-22T21:09:07.311Z,86.42
2023-01-22T21:11:36.748Z,85.10
2023-01-22T21:14:05.817Z,84.33
2023-01-22T21:16:36.884Z,84.97
2023-01-22T21:19:13.220Z,89.88
2023-01-22T21:21:41.541Z,90.80
2023-01-22T21:24:09.591Z,89.04
2023-01-22T21:26:37.898Z,86.52
2023-01-22T21:29:09.751Z,87.62
2023-01-22T21:31:38.002Z,86.61
2023-01-22T21:34:08.765Z,88.82
2023-01-22T21:36:39.360Z,88.10
2023-01-22T21:39:13.588Z,86.66
2023-01-22T21:41:43.731Z,86.16
2023-01-22T21:44:33.047Z,87.86
2023-01-22T21:47:01.744Z,89.67
2023-01-22T21:49:30.430Z,89.16
2023-01-22T21:52:00.799Z,92.14
2023-01-22T21:54:39.679Z,93.29
2023-01-22T21:57:11.505Z,91.76
2023-01-22T21:59:39.636Z,93.13
2023-01-22T22:02:10.667Z,92.16
2023-01-22T22:04:38.917Z,92.28
2023-01-22T22:07:06.947Z,90.05
2023-01-22T22:09:35.218Z,89.83
2023-01-22T22:12:04.107Z,89.87
2023-01-22T22:14:32.240Z,89.81
2023-01-22T22:17:00.209Z,88.65
2023-01-22T22:19:29.105Z,89.10
2023-01-22T22:21:57.018Z,91.37
2023-01-22T22:24:24.947Z,88.85
2023-01-22T22:26:53.239Z,89.68
2023-01-22T22:29:21.258Z,88.22
2023-01-22T22:31:49.329Z,86.82
2023-01-22T22:34:17.960Z,87.33
2023-01-22T22:39:13.826Z,92.47
2023-01-22T22:41:42.222Z,92.76
2023-01-22T22:44:10.999Z,93.29
2023-01-22T22:46:39.547Z,92.23
2023-01-22T22:49:11.846Z,93.52
2023-01-22T22:51:41.407Z,93.71
2023-01-22T22:54:18.043Z,92.33
2023-01-22T22:56:47.587Z,92.06
2023-01-22T22:59:16.455Z,93.40
2023-01-22T23:01:44.389Z,96.08
2023-01-22T23:04:12.987Z,96.08
2023-01-22T23:06:44.067Z,97.34
2023-01-22T23:09:14.661Z,93.68
2023-01-22T23:11:42.986Z,95.57
2023-01-22T23:14:10.857Z,95.99
2023-01-22T23:16:41.126Z,93.37
2023-01-22T23:19:14.069Z,92.76
2023-01-22T23:21:42.197Z,90.98
2023-01-22T23:24:12.403Z,94.13
2023-01-22T23:26:42.097Z,92.26
2023-01-22T23:29:12.109Z,89.84
2023-01-22T23:31:40.240Z,89.72
2023-01-22T23:34:11.801Z,91.24
2023-01-22T23:36:43.777Z,89.86
2023-01-22T23:39:13.647Z,91.02
2023-01-22T23:41:42.819Z,89.69
2023-01-22T23:44:11.959Z,89.72
2023-01-22T23:46:39.843Z,91.06
2023-01-22T23:49:08.373Z,89.57
2023-01-22T23:51:38.438Z,89.26
2023-01-22T23:54:07.541Z,89.50
2023-01-22T23:56:36.216Z,91.12
2023-01-22T23:59:04.155Z,90.66
